Time;durP1;ratioP1;P1;durP2;ratioP2;P2;SDS_P1;SDS_P2;PMS_P1;PMS_P2;Temp;Humidity;BMP_temperature;BMP_pressure;BME280_temperature;BME280_humidity;BME280_pressure;Samples;Min_cycle;Max_cycle;Signal;HPM_P1;HPM_P2
2023/12/28 00:01:08;;;;;;;;;8.00;6.00;;;;;11.53;75.03;101206.31;4995700;28;45353;-52
2023/12/28 00:03:34;;;;;;;;;6.67;6.67;;;;;11.65;75.28;101221.19;4995629;28;48840;-49
2023/12/28 00:05:59;;;;;;;;;5.33;3.67;;;;;11.62;75.15;101213.47;4995699;28;45527;-53
2023/12/28 00:08:24;;;;;;;;;4.33;4.00;;;;;11.66;75.18;101228.19;4996095;28;45556;-51
2023/12/28 00:10:50;;;;;;;;;6.00;3.33;;;;;11.69;75.40;101221.75;4995902;28;46251;-53
2023/12/28 00:13:15;;;;;;;;;6.00;4.00;;;;;11.68;75.23;101228.91;4995584;28;45311;-52
2023/12/28 00:15:41;;;;;;;;;4.33;4.33;;;;;11.64;75.25;101224.84;4995816;28;45382;-49
2023/12/28 00:18:06;;;;;;;;;5.67;5.00;;;;;11.64;75.05;101222.19;4995751;28;45504;-56
2023/12/28 00:20:31;;;;;;;;;8.00;5.67;;;;;11.64;75.59;101226.66;4995505;28;46224;-54
2023/12/28 00:22:58;;;;;;;;;7.67;5.33;;;;;11.64;75.40;101234.66;4995755;28;45286;-52
2023/12/28 00:25:23;;;;;;;;;7.00;6.00;;;;;11.61;75.58;101229.59;4995733;28;45365;-55
2023/12/28 00:27:49;;;;;;;;;6.33;6.00;;;;;11.62;75.38;101239.28;4995813;28;45290;-51
2023/12/28 00:30:14;;;;;;;;;4.33;4.33;;;;;11.60;75.43;101227.94;4995433;28;46199;-55
2023/12/28 00:32:43;;;;;;;;;4.67;4.67;;;;;11.60;75.95;101230.59;4995490;28;45375;-53
2023/12/28 00:35:08;;;;;;;;;7.00;6.00;;;;;11.62;76.23;101241.94;4995414;28;45382;-56
2023/12/28 00:37:34;;;;;;;;;6.00;6.00;;;;;11.55;76.20;101217.69;4995542;28;45358;-54
2023/12/28 00:39:59;;;;;;;;;8.67;5.33;;;;;11.62;76.20;101228.63;4995288;28;46152;-53
2023/12/28 00:42:24;;;;;;;;;6.00;6.00;;;;;11.63;76.52;101230.28;4995370;28;45332;-55
2023/12/28 00:44:50;;;;;;;;;3.33;3.00;;;;;11.64;76.25;101232.00;4995599;28;45454;-50
2023/12/28 00:47:15;;;;;;;;;4.00;4.00;;;;;11.61;76.45;101230.44;4995517;28;45248;-55
2023/12/28 00:49:40;;;;;;;;;7.00;4.00;;;;;11.62;76.44;101228.63;4995095;28;46186;-52
2023/12/28 00:52:06;;;;;;;;;8.33;6.00;;;;;11.53;76.67;101217.00;4995237;28;45480;-56
2023/12/28 00:54:31;;;;;;;;;11.00;7.00;;;;;11.43;76.06;101206.34;4995542;28;45422;-57
2023/12/28 00:56:56;;;;;;;;;11.33;6.67;;;;;11.58;76.65;101225.38;4995673;28;45326;-55
2023/12/28 00:59:22;;;;;;;;;7.33;5.33;;;;;11.56;76.75;101222.03;4995371;28;46110;-54
2023/12/28 01:01:47;;;;;;;;;7.00;4.33;;;;;11.53;76.49;101232.97;4998487;28;45701;-55
2023/12/28 01:04:12;;;;;;;;;4.00;4.00;;;;;11.57;76.27;101225.53;4998447;28;45321;-54
2023/12/28 01:06:38;;;;;;;;;7.00;4.67;;;;;11.55;77.08;101220.38;4998621;28;45256;-53
2023/12/28 01:09:03;;;;;;;;;6.00;6.00;;;;;11.55;76.99;101238.19;4998492;28;46206;-52
2023/12/28 01:11:28;;;;;;;;;6.67;6.67;;;;;11.53;75.88;101227.63;4998315;28;45308;-51
2023/12/28 01:13:54;;;;;;;;;6.67;6.67;;;;;11.51;76.26;101226.97;4998416;28;45507;-56
2023/12/28 01:16:19;;;;;;;;;7.67;5.33;;;;;11.49;77.71;101221.75;4998787;28;45268;-55
2023/12/28 01:18:44;;;;;;;;;4.33;4.33;;;;;11.15;77.27;101173.41;4998015;28;46164;-57
2023/12/28 01:21:10;;;;;;;;;5.33;5.33;;;;;11.49;76.87;101232.41;4998389;28;45448;-54
2023/12/28 01:23:36;;;;;;;;;6.67;5.67;;;;;11.48;76.98;101224.56;4998284;28;45235;-57
2023/12/28 01:26:01;;;;;;;;;6.00;3.33;;;;;11.48;77.66;101236.06;4998133;28;45466;-53
2023/12/28 01:28:26;;;;;;;;;6.00;6.00;;;;;11.48;77.66;101237.88;4998311;28;45290;-57
2023/12/28 01:30:52;;;;;;;;;9.33;5.33;;;;;11.47;77.36;101234.38;4998268;28;45318;-55
2023/12/28 01:33:17;;;;;;;;;8.00;6.00;;;;;11.44;78.59;101234.66;4998382;28;45228;-54
2023/12/28 01:35:42;;;;;;;;;3.00;3.00;;;;;11.41;77.79;101237.59;4998406;28;45523;-56
2023/12/28 01:38:08;;;;;;;;;8.00;3.00;;;;;11.39;78.60;101231.59;4997906;28;45433;-56
2023/12/28 01:40:33;;;;;;;;;7.67;6.00;;;;;11.38;78.14;101229.06;4997968;28;45287;-54
2023/12/28 01:42:59;;;;;;;;;9.67;7.00;;;;;11.38;78.28;101234.41;4998026;28;45587;-56
2023/12/28 01:45:24;;;;;;;;;8.00;7.00;;;;;11.35;78.67;101238.16;4998119;28;45481;-52
2023/12/28 01:47:52;;;;;;;;;7.67;3.33;;;;;11.33;77.65;101242.78;4997660;28;46175;-52
2023/12/28 01:50:18;;;;;;;;;7.00;6.00;;;;;11.32;79.06;101245.59;4997663;28;45402;-56
2023/12/28 01:52:44;;;;;;;;;7.67;4.67;;;;;11.30;79.52;101247.56;4997848;28;45417;-55
2023/12/28 01:55:10;;;;;;;;;5.00;4.00;;;;;11.28;79.21;101247.69;4997820;28;45306;-56
2023/12/28 01:57:35;;;;;;;;;6.33;4.67;;;;;11.28;79.44;101260.16;4997659;28;46067;-53
2023/12/28 02:00:03;;;;;;;;;7.00;5.33;;;;;11.27;79.72;101254.00;4997378;28;45363;-56
2023/12/28 02:02:31;;;;;;;;;5.33;5.00;;;;;11.29;80.22;101259.19;4996286;28;45359;-51
2023/12/28 02:04:56;;;;;;;;;6.00;6.00;;;;;11.30;79.71;101264.38;4997684;28;45445;-56
2023/12/28 02:07:24;;;;;;;;;9.33;6.00;;;;;11.30;79.47;101260.88;4997330;28;46139;-56
2023/12/28 02:09:49;;;;;;;;;11.67;6.00;;;;;11.35;79.59;101263.97;4997464;28;45372;-57
2023/12/28 02:12:15;;;;;;;;;8.00;7.67;;;;;11.38;79.69;101272.53;4996301;28;45457;-55
2023/12/28 02:14:40;;;;;;;;;7.00;7.00;;;;;11.36;79.49;101269.13;4997646;28;45430;-52
2023/12/28 02:17:44;;;;;;;;;6.00;5.67;;;;;11.36;80.20;101274.47;4997397;28;46285;-52
2023/12/28 02:20:11;;;;;;;;;5.00;5.00;;;;;11.34;80.45;101267.63;4956083;28;45613;-53
2023/12/28 02:22:37;;;;;;;;;5.33;5.33;;;;;11.32;80.99;101275.72;4956056;28;45383;-57
2023/12/28 02:25:06;;;;;;;;;5.00;4.00;;;;;11.30;80.80;101279.53;4956385;28;46015;-56
2023/12/28 02:27:43;;;;;;;;;8.00;7.33;;;;;11.25;80.63;101271.97;4955867;28;45416;-52
2023/12/28 02:30:11;;;;;;;;;6.00;6.00;;;;;11.23;81.26;101277.41;4955876;28;45316;-50
2023/12/28 02:33:01;;;;;;;;;6.33;6.00;;;;;11.23;81.62;101276.56;4955795;28;45536;-54
2023/12/28 02:35:41;;;;;;;;;6.67;4.00;;;;;11.23;81.16;101289.88;4955794;28;45605;-55
2023/12/28 02:38:10;;;;;;;;;6.00;4.00;;;;;11.26;82.05;101284.28;4955738;28;45435;-49
2023/12/28 02:40:40;;;;;;;;;7.67;7.00;;;;;11.26;81.83;101283.44;4955718;28;45502;-52
2023/12/28 02:43:07;;;;;;;;;6.33;4.67;;;;;11.26;81.73;101276.28;4955936;28;45425;-55
2023/12/28 02:45:32;;;;;;;;;3.00;3.00;;;;;11.28;82.05;101276.97;4954892;28;45563;-52
2023/12/28 02:47:58;;;;;;;;;6.67;6.67;;;;;11.23;81.95;101285.38;4955764;28;47546;-53
2023/12/28 02:50:23;;;;;;;;;3.00;3.00;;;;;11.23;81.83;101281.88;4967132;28;45389;-53
2023/12/28 02:52:48;;;;;;;;;9.67;7.33;;;;;11.21;82.49;101271.38;4997067;28;45245;-56
2023/12/28 02:55:14;;;;;;;;;8.00;7.00;;;;;11.18;82.69;101265.50;4997242;28;45355;-55
2023/12/28 02:57:40;;;;;;;;;6.67;4.67;;;;;11.15;82.06;101271.91;4996783;28;45514;-52
2023/12/28 03:00:07;;;;;;;;;9.00;7.33;;;;;11.10;82.71;101268.84;4996788;28;45441;-54
2023/12/28 03:02:33;;;;;;;;;6.33;5.00;;;;;11.10;83.26;101281.31;4996848;28;45406;-55
2023/12/28 03:04:58;;;;;;;;;5.67;5.67;;;;;11.05;83.41;101271.06;4996862;28;45450;-55
2023/12/28 03:07:23;;;;;;;;;4.67;4.67;;;;;11.00;82.89;101267.97;4996333;28;46305;-54
2023/12/28 03:09:49;;;;;;;;;10.00;6.00;;;;;11.03;83.27;101278.34;4996792;28;45496;-55
2023/12/28 03:12:16;;;;;;;;;5.00;3.00;;;;;10.97;83.05;101273.56;4996832;28;45340;-52
2023/12/28 03:14:41;;;;;;;;;6.67;5.33;;;;;11.01;83.53;101264.34;4997049;28;45273;-55
2023/12/28 03:17:06;;;;;;;;;4.00;4.00;;;;;10.98;83.30;101270.75;4996418;28;46066;-57
2023/12/28 03:19:32;;;;;;;;;9.00;6.67;;;;;10.96;83.30;101271.91;4996546;28;45173;-55
2023/12/28 03:21:57;;;;;;;;;5.33;5.33;;;;;10.85;83.49;101248.03;4996671;28;45430;-53
2023/12/28 03:24:22;;;;;;;;;6.33;6.33;;;;;10.95;83.45;101267.53;4995656;28;45302;-54
2023/12/28 03:26:48;;;;;;;;;7.67;6.00;;;;;10.91;83.75;101258.13;4996293;28;46130;-53
2023/12/28 03:29:13;;;;;;;;;5.00;5.00;;;;;10.89;83.30;101260.94;4996533;28;45515;-54
2023/12/28 03:31:39;;;;;;;;;7.00;6.00;;;;;10.90;83.54;101259.94;4996430;28;45415;-55
2023/12/28 03:34:04;;;;;;;;;6.33;6.33;;;;;10.88;83.99;101263.75;4996682;28;45467;-56
2023/12/28 03:36:30;;;;;;;;;6.67;6.67;;;;;10.89;83.54;101276.91;4994400;28;45924;-56
2023/12/28 03:38:55;;;;;;;;;8.00;5.00;;;;;10.82;84.36;101270.44;4996171;28;45490;-56
2023/12/28 03:41:21;;;;;;;;;5.00;5.00;;;;;10.92;83.60;101273.16;4996425;28;45360;-55
2023/12/28 03:43:47;;;;;;;;;4.67;4.00;;;;;10.92;83.56;101276.66;4996579;28;45443;-56
2023/12/28 03:46:13;;;;;;;;;8.00;6.00;;;;;10.91;83.94;101264.31;4995953;28;45362;-56
2023/12/28 03:48:39;;;;;;;;;7.67;6.00;;;;;10.85;84.43;101245.38;4996074;28;45447;-53
2023/12/28 03:51:04;;;;;;;;;8.00;5.00;;;;;10.87;84.50;101265.56;4996055;28;45388;-54
2023/12/28 03:53:33;;;;;;;;;8.00;6.00;;;;;10.84;84.40;101251.69;4996588;28;45324;-51
2023/12/28 03:55:59;;;;;;;;;4.00;4.00;;;;;10.87;83.71;101262.91;4995958;28;46497;-55
2023/12/28 03:58:24;;;;;;;;;5.67;3.33;;;;;10.85;84.33;101264.00;4995810;28;45394;-54
2023/12/28 04:00:50;;;;;;;;;9.33;7.33;;;;;10.76;84.07;101243.53;4996238;28;45378;-56
2023/12/28 04:03:15;;;;;;;;;5.00;4.00;;;;;10.80;84.73;101255.59;4996161;28;45453;-53
2023/12/28 04:05:41;;;;;;;;;8.00;6.00;;;;;10.79;84.87;101259.22;4995549;28;47661;-54
2023/12/28 04:08:07;;;;;;;;;8.33;6.33;;;;;10.78;85.34;101257.53;4995884;28;45386;-53
2023/12/28 04:10:33;;;;;;;;;8.00;7.00;;;;;10.73;84.64;101256.13;4995993;28;45347;-52
2023/12/28 04:12:59;;;;;;;;;5.00;4.67;;;;;10.74;85.14;101260.50;4996115;28;45353;-53
2023/12/28 04:15:25;;;;;;;;;9.00;7.67;;;;;10.71;84.72;101252.75;4995647;28;46268;-51
2023/12/28 04:17:51;;;;;;;;;8.00;4.00;;;;;10.72;84.76;101261.59;4995699;28;45397;-53
2023/12/28 04:20:16;;;;;;;;;7.00;5.00;;;;;10.70;85.00;101258.19;4995603;28;45330;-53
2023/12/28 04:22:43;;;;;;;;;4.67;4.67;;;;;10.71;85.13;101265.22;4996003;28;45388;-55
2023/12/28 04:25:09;;;;;;;;;5.00;5.00;;;;;10.69;85.43;101253.88;4995384;28;47008;-54
2023/12/28 04:27:35;;;;;;;;;3.00;2.00;;;;;10.69;85.46;101256.53;4995367;28;45389;-54
2023/12/28 04:30:00;;;;;;;;;9.00;5.33;;;;;10.67;84.85;101256.66;4995719;28;45419;-52
2023/12/28 04:32:26;;;;;;;;;7.00;6.33;;;;;10.66;86.06;101257.66;4995955;28;45353;-52
2023/12/28 04:34:52;;;;;;;;;4.67;4.00;;;;;10.64;85.95;101254.28;4996384;28;46219;-54
2023/12/28 04:37:17;;;;;;;;;8.00;4.00;;;;;10.64;85.17;101258.75;4998376;28;50042;-53
2023/12/28 04:39:42;;;;;;;;;3.33;3.33;;;;;10.60;85.54;101247.53;4999117;28;45814;-53
2023/12/28 04:42:07;;;;;;;;;6.33;5.33;;;;;10.60;85.25;101252.84;4999380;28;45485;-54
2023/12/28 04:44:38;;;;;;;;;6.33;3.67;;;;;10.59;85.88;101260.97;4998986;28;47282;-51
2023/12/28 04:47:03;;;;;;;;;7.00;6.67;;;;;10.55;85.80;101257.75;4998793;28;45369;-53
2023/12/28 04:49:29;;;;;;;;;7.33;5.00;;;;;10.56;85.57;101258.59;4998727;28;45272;-54
2023/12/28 04:51:55;;;;;;;;;10.00;5.00;;;;;10.52;86.13;101255.34;4998929;28;45498;-52
2023/12/28 04:54:20;;;;;;;;;4.67;3.67;;;;;10.56;85.56;101256.75;4998980;28;45434;-55
2023/12/28 04:56:45;;;;;;;;;8.00;6.00;;;;;10.55;85.32;101257.75;4998708;28;45368;-52
2023/12/28 04:59:11;;;;;;;;;7.67;6.00;;;;;10.55;85.79;101243.59;4998852;28;45326;-52
2023/12/28 05:01:43;;;;;;;;;7.33;4.00;;;;;10.50;84.75;101238.69;4998979;28;45660;-54
2023/12/28 05:04:09;;;;;;;;;6.67;6.67;;;;;10.53;85.13;101248.19;4998603;28;47401;-55
2023/12/28 05:06:34;;;;;;;;;6.67;6.33;;;;;10.16;85.60;101193.72;4998404;28;45359;-55
2023/12/28 05:08:59;;;;;;;;;7.33;6.00;;;;;10.50;85.77;101244.00;4998747;28;45298;-55
2023/12/28 05:11:25;;;;;;;;;11.00;5.00;;;;;10.47;86.13;101250.44;4998900;28;45429;-55
2023/12/28 05:13:50;;;;;;;;;5.67;5.67;;;;;10.46;86.12;101258.56;4998540;28;46337;-56
2023/12/28 05:16:15;;;;;;;;;8.00;5.67;;;;;10.46;85.66;101250.56;4998228;28;48436;-56
2023/12/28 05:18:41;;;;;;;;;6.67;6.00;;;;;10.42;86.27;101246.50;4998493;28;45422;-55
2023/12/28 05:21:06;;;;;;;;;6.00;4.00;;;;;10.44;85.37;101252.50;4998308;28;45293;-55
2023/12/28 05:23:31;;;;;;;;;9.00;6.00;;;;;10.41;86.42;101255.47;4998160;28;45326;-54
2023/12/28 05:25:56;;;;;;;;;8.00;5.33;;;;;10.42;87.04;101257.13;4997853;28;45338;-56
2023/12/28 05:28:22;;;;;;;;;9.00;7.00;;;;;10.40;86.22;101264.38;4998275;28;45312;-57
2023/12/28 05:30:47;;;;;;;;;8.00;6.00;;;;;10.39;86.93;101252.91;4998414;28;45595;-54
2023/12/28 05:33:12;;;;;;;;;7.00;6.00;;;;;10.38;86.94;101261.03;4997970;28;46174;-54
2023/12/28 05:35:38;;;;;;;;;8.00;6.67;;;;;10.38;87.58;101259.22;4997564;28;45349;-55
2023/12/28 05:38:04;;;;;;;;;10.67;9.33;;;;;10.36;87.39;101249.66;4998133;28;45320;-57
2023/12/28 05:40:30;;;;;;;;;6.33;6.33;;;;;10.38;87.58;101253.88;4998394;28;45422;-56
2023/12/28 05:42:55;;;;;;;;;7.00;6.67;;;;;10.38;86.81;101258.38;4997826;28;45357;-56
2023/12/28 05:45:20;;;;;;;;;4.00;3.67;;;;;10.38;87.59;101263.69;4997951;28;45331;-55
2023/12/28 05:47:45;;;;;;;;;8.00;4.67;;;;;10.38;86.28;101271.66;4996963;28;45362;-54
2023/12/28 05:50:11;;;;;;;;;6.33;6.00;;;;;10.35;87.79;101266.59;4998161;28;45368;-54
2023/12/28 05:52:36;;;;;;;;;12.33;5.00;;;;;10.34;87.17;101263.09;4997817;28;45227;-54
2023/12/28 05:55:02;;;;;;;;;6.00;5.67;;;;;10.33;87.50;101264.09;4997540;28;50481;-55
2023/12/28 05:57:29;;;;;;;;;5.33;5.33;;;;;10.33;87.69;101266.75;4998034;28;45310;-56
2023/12/28 05:59:55;;;;;;;;;7.00;5.00;;;;;10.32;88.19;101266.84;4998116;28;45485;-55
2023/12/28 06:02:21;;;;;;;;;9.67;7.00;;;;;10.31;88.21;101268.69;4997694;28;47193;-55
2023/12/28 06:04:46;;;;;;;;;12.00;6.00;;;;;10.30;87.58;101274.97;4997626;28;45370;-55
2023/12/28 06:07:11;;;;;;;;;9.67;4.33;;;;;10.30;89.01;101290.09;4997449;28;45416;-56
2023/12/28 06:09:38;;;;;;;;;12.33;7.00;;;;;10.28;88.77;101297.34;4998037;28;45402;-56
2023/12/28 06:12:07;;;;;;;;;7.00;5.00;;;;;10.27;87.53;101285.88;4997737;28;46256;-56
2023/12/28 06:14:32;;;;;;;;;9.33;5.33;;;;;10.25;89.25;101295.81;4997442;28;45453;-55
2023/12/28 06:16:58;;;;;;;;;5.67;4.33;;;;;10.12;89.17;101272.06;4997625;28;45176;-57
2023/12/28 06:19:23;;;;;;;;;7.67;3.67;;;;;10.22;88.78;101296.88;4997886;28;45330;-56
2023/12/28 06:21:49;;;;;;;;;6.00;3.33;;;;;10.22;88.48;101294.22;4997045;28;49408;-55
2023/12/28 06:24:14;;;;;;;;;6.33;4.67;;;;;10.22;89.36;101294.22;4997547;28;45406;-54
2023/12/28 06:26:44;;;;;;;;;7.33;4.33;;;;;10.20;89.05;101292.69;4997273;28;45230;-56
2023/12/28 06:29:10;;;;;;;;;6.33;5.00;;;;;10.12;88.70;101288.00;4997192;28;45593;-54
2023/12/28 06:31:36;;;;;;;;;7.00;6.67;;;;;10.17;89.27;101301.75;4997031;28;46966;-57
2023/12/28 06:34:05;;;;;;;;;5.00;5.00;;;;;10.17;88.63;101307.06;4997122;28;45250;-55
2023/12/28 06:36:31;;;;;;;;;10.33;6.00;;;;;10.16;89.38;101305.38;4996981;28;45493;-54
2023/12/28 06:38:57;;;;;;;;;5.67;3.67;;;;;10.16;88.70;101304.53;4997479;28;45477;-56
2023/12/28 06:41:23;;;;;;;;;4.33;4.33;;;;;10.15;88.81;101303.69;4996996;28;47411;-55
2023/12/28 06:43:48;;;;;;;;;7.67;6.00;;;;;10.15;89.90;101309.00;4997037;28;45355;-57
2023/12/28 06:46:13;;;;;;;;;7.00;6.00;;;;;10.15;89.65;101313.47;4997013;28;45366;-52
2023/12/28 06:48:40;;;;;;;;;3.33;2.00;;;;;10.13;90.19;101307.47;4997194;28;45330;-55
2023/12/28 06:51:06;;;;;;;;;7.00;5.33;;;;;10.11;90.12;101312.91;4996593;28;47070;-54
2023/12/28 06:53:31;;;;;;;;;12.33;6.00;;;;;10.12;89.93;101314.59;4996462;28;45367;-54
2023/12/28 06:55:57;;;;;;;;;5.67;3.00;;;;;10.08;89.17;101307.00;4996590;28;45624;-53
2023/12/28 06:58:22;;;;;;;;;11.33;7.00;;;;;10.12;89.55;101303.97;4995283;28;45367;-53
2023/12/28 07:00:47;;;;;;;;;8.00;6.00;;;;;10.12;90.03;101303.97;4996343;28;46071;-55
2023/12/28 07:03:13;;;;;;;;;10.00;6.00;;;;;10.15;89.70;101314.31;4996487;28;45340;-54
2023/12/28 07:05:38;;;;;;;;;7.00;7.00;;;;;9.99;89.50;101295.34;4996557;28;45566;-54
2023/12/28 07:08:04;;;;;;;;;3.00;3.00;;;;;10.15;90.46;101316.13;4996754;28;45387;-56
2023/12/28 07:10:29;;;;;;;;;10.67;6.00;;;;;10.18;90.42;101316.72;4996392;28;46049;-55
2023/12/28 07:12:54;;;;;;;;;6.00;5.67;;;;;10.19;90.14;101313.06;4996285;28;45328;-52
2023/12/28 07:15:20;;;;;;;;;8.00;6.00;;;;;10.19;90.83;101309.59;4996294;28;45459;-55
2023/12/28 07:17:45;;;;;;;;;7.00;7.00;;;;;10.12;89.69;101308.44;4996728;28;45437;-54
2023/12/28 07:20:10;;;;;;;;;7.33;6.00;;;;;10.19;90.15;101321.06;4995984;28;47256;-54
2023/12/28 07:22:37;;;;;;;;;10.67;7.00;;;;;10.16;90.06;101318.69;4995900;28;45474;-53
2023/12/28 07:25:06;;;;;;;;;9.00;4.33;;;;;10.15;90.85;101316.13;4996355;28;45368;-55
2023/12/28 07:27:32;;;;;;;;;6.00;6.00;;;;;10.15;90.28;101314.31;4996254;28;45484;-54
2023/12/28 07:29:58;;;;;;;;;4.67;4.67;;;;;10.13;90.90;101315.44;4995970;28;46123;-50
2023/12/28 07:32:25;;;;;;;;;11.33;7.00;;;;;10.15;90.57;101319.63;4996321;28;45375;-55
2023/12/28 07:34:54;;;;;;;;;9.00;7.00;;;;;10.19;90.59;101320.22;4996627;28;45476;-55
2023/12/28 07:37:19;;;;;;;;;7.00;7.00;;;;;10.18;90.81;101314.06;4996174;28;45383;-55
2023/12/28 07:39:45;;;;;;;;;7.67;7.67;;;;;10.19;91.30;101317.56;4996136;28;45553;-55
2023/12/28 07:42:10;;;;;;;;;10.00;6.00;;;;;10.21;91.64;101315.63;4996022;28;45413;-54
2023/12/28 07:44:36;;;;;;;;;14.33;8.00;;;;;10.23;91.71;101324.31;4996280;28;45276;-54
2023/12/28 07:47:01;;;;;;;;;10.00;6.67;;;;;10.23;91.39;101316.31;4996393;28;45312;-55
2023/12/28 07:49:27;;;;;;;;;8.00;5.33;;;;;10.26;91.89;101332.06;4996060;28;45561;-53
2023/12/28 07:51:52;;;;;;;;;7.67;7.33;;;;;10.27;92.32;101325.75;4995897;28;45303;-55
2023/12/28 07:54:18;;;;;;;;;6.67;6.33;;;;;10.28;91.55;101329.25;4996426;28;45364;-53
2023/12/28 07:56:44;;;;;;;;;3.00;3.00;;;;;10.29;91.31;101338.94;4996648;28;45415;-51
2023/12/28 07:59:09;;;;;;;;;7.00;7.00;;;;;10.29;91.90;101326.50;4995794;28;45344;-49
2023/12/28 08:01:35;;;;;;;;;8.67;6.00;;;;;10.27;91.93;101315.13;4995715;28;49567;-53
2023/12/28 08:04:01;;;;;;;;;7.67;6.00;;;;;10.23;90.86;101308.34;4996055;28;45363;-53
2023/12/28 08:06:27;;;;;;;;;12.00;6.33;;;;;10.30;91.49;101314.88;4996067;28;46088;-52
2023/12/28 08:08:53;;;;;;;;;6.33;6.33;;;;;10.31;91.95;101318.38;4995948;28;46230;-55
2023/12/28 08:11:19;;;;;;;;;6.67;5.33;;;;;10.29;91.58;101315.00;4998812;28;45383;-50
2023/12/28 08:13:44;;;;;;;;;10.00;7.00;;;;;10.33;91.52;101327.06;4999520;28;45402;-54
2023/12/28 08:16:10;;;;;;;;;6.33;4.00;;;;;10.38;92.20;101327.53;5000081;28;45393;-53
2023/12/28 08:18:35;;;;;;;;;7.33;4.67;;;;;10.34;91.60;101328.75;4999236;28;46060;-55
2023/12/28 08:21:00;;;;;;;;;8.00;6.00;;;;;10.42;92.21;101334.25;4999188;28;45317;-53
2023/12/28 08:23:26;;;;;;;;;7.33;5.67;;;;;10.47;91.95;101334.72;4999109;28;45265;-52
2023/12/28 08:25:51;;;;;;;;;9.33;6.00;;;;;10.48;91.70;101344.38;4999747;28;45362;-54
2023/12/28 08:28:17;;;;;;;;;6.00;3.00;;;;;10.51;91.07;101352.09;4999099;28;45561;-53
2023/12/28 08:30:42;;;;;;;;;5.67;4.33;;;;;10.58;91.28;101355.09;4998988;28;45185;-56
2023/12/28 08:33:07;;;;;;;;;2.00;2.00;;;;;10.68;90.88;101350.63;4999338;28;45642;-56
2023/12/28 08:35:33;;;;;;;;;11.00;6.00;;;;;10.73;90.95;101364.38;4998383;28;45534;-56
2023/12/28 08:37:58;;;;;;;;;7.33;4.67;;;;;10.78;89.94;101359.50;4999047;28;46288;-55
2023/12/28 08:40:23;;;;;;;;;4.33;3.00;;;;;10.77;90.05;101346.34;4999203;28;45382;-55
2023/12/28 08:42:48;;;;;;;;;9.67;4.00;;;;;10.79;89.78;101347.03;4998941;28;45244;-52
2023/12/28 08:45:14;;;;;;;;;3.00;3.00;;;;;10.81;90.41;101350.41;4999129;28;45350;-55
2023/12/28 08:47:44;;;;;;;;;6.00;3.00;;;;;10.79;90.12;101349.69;4998349;28;46295;-54
2023/12/28 08:50:10;;;;;;;;;4.00;4.00;;;;;10.81;89.81;101350.41;4998580;28;45425;-52
2023/12/28 08:52:35;;;;;;;;;6.33;4.00;;;;;10.79;89.68;101339.03;4998953;28;45271;-55
2023/12/28 08:55:01;;;;;;;;;6.00;6.00;;;;;10.77;89.38;101349.00;4999185;28;45481;-54
2023/12/28 08:57:26;;;;;;;;;6.33;5.33;;;;;10.78;89.83;101348.00;4998664;28;45334;-55
2023/12/28 08:59:51;;;;;;;;;6.00;3.67;;;;;10.81;89.91;101353.06;4998904;28;45169;-55
2023/12/28 09:02:17;;;;;;;;;7.67;4.00;;;;;10.81;89.74;101353.91;4998909;28;45378;-55
2023/12/28 09:04:42;;;;;;;;;6.00;4.00;;;;;10.86;89.44;101351.69;4998965;28;45434;-53
2023/12/28 09:07:07;;;;;;;;;7.00;4.00;;;;;10.93;89.42;101355.50;4998274;28;47208;-55
2023/12/28 09:09:33;;;;;;;;;3.67;3.67;;;;;11.02;88.73;101361.84;4998692;28;45364;-55
2023/12/28 09:11:58;;;;;;;;;11.33;6.33;;;;;11.16;88.43;101360.63;4998565;28;45225;-56
2023/12/28 09:14:23;;;;;;;;;2.67;2.67;;;;;11.24;87.80;101356.31;4998940;28;45330;-55
2023/12/28 09:16:49;;;;;;;;;4.00;4.00;;;;;11.28;87.23;101370.19;4998154;28;46190;-54
2023/12/28 09:19:14;;;;;;;;;6.33;3.33;;;;;11.25;87.01;101351.84;4998134;28;45320;-52
2023/12/28 09:21:40;;;;;;;;;4.00;4.00;;;;;11.36;86.72;101367.69;4998516;28;45306;-51
2023/12/28 09:24:06;;;;;;;;;7.33;4.33;;;;;11.46;86.37;101376.56;4998267;28;45329;-51
2023/12/28 09:26:32;;;;;;;;;3.33;2.33;;;;;11.59;85.67;101363.00;4998044;28;45424;-55
2023/12/28 09:28:58;;;;;;;;;3.00;3.00;;;;;11.67;85.04;101378.25;4998021;28;45409;-52
2023/12/28 09:31:23;;;;;;;;;3.00;3.00;;;;;11.62;84.94;101384.00;4998023;28;45401;-54
2023/12/28 09:33:48;;;;;;;;;7.00;4.00;;;;;11.66;84.73;101377.44;4998160;28;45536;-53
2023/12/28 09:36:14;;;;;;;;;6.00;4.00;;;;;11.69;84.38;101374.50;4997495;28;46618;-55
2023/12/28 09:38:39;;;;;;;;;7.00;7.00;;;;;11.71;84.12;101369.00;4997634;28;45394;-52
2023/12/28 09:41:14;;;;;;;;;6.00;4.67;;;;;11.86;83.47;101382.81;4998004;28;45366;-55
2023/12/28 09:43:53;;;;;;;;;6.67;4.33;;;;;12.09;83.00;101378.88;4998173;28;45506;-54
2023/12/28 09:46:18;;;;;;;;;4.00;4.00;;;;;11.99;82.37;101367.38;4997615;28;46230;-52
2023/12/28 09:48:44;;;;;;;;;6.33;3.33;;;;;12.01;81.90;101385.91;4997643;28;47367;-52
2023/12/28 09:51:10;;;;;;;;;4.67;3.67;;;;;11.99;81.96;101384.22;4997824;28;45192;-55
2023/12/28 09:53:36;;;;;;;;;6.00;3.33;;;;;12.03;82.20;101389.28;4997795;28;45565;-54
2023/12/28 09:56:02;;;;;;;;;7.67;6.33;;;;;12.02;82.15;101407.13;4997355;28;46342;-53
2023/12/28 09:58:29;;;;;;;;;7.67;5.00;;;;;12.00;82.40;101393.06;4997493;28;45302;-50
2023/12/28 10:00:56;;;;;;;;;5.33;2.00;;;;;11.93;81.99;101405.28;4997795;28;45293;-50
2023/12/28 10:03:22;;;;;;;;;7.33;3.33;;;;;11.89;81.97;101402.06;4997731;28;45252;-54
2023/12/28 10:05:47;;;;;;;;;7.00;4.00;;;;;11.85;81.95;101397.16;4997182;28;46190;-52
2023/12/28 10:08:13;;;;;;;;;9.00;5.33;;;;;11.79;82.46;101397.66;4997506;28;45428;-54
2023/12/28 10:10:40;;;;;;;;;3.67;3.67;;;;;11.76;82.71;101393.47;4997629;28;45341;-51
2023/12/28 10:13:11;;;;;;;;;10.33;7.67;;;;;11.73;82.69;101381.22;4997676;28;45399;-55
2023/12/28 10:15:37;;;;;;;;;4.00;4.00;;;;;11.76;82.42;101392.63;4997288;28;46326;-54
2023/12/28 10:18:04;;;;;;;;;4.00;4.00;;;;;11.81;82.36;101385.88;4997436;28;45307;-55
2023/12/28 10:20:29;;;;;;;;;12.00;6.67;;;;;11.92;81.87;101379.59;4997646;28;45378;-50
2023/12/28 10:22:55;;;;;;;;;7.33;7.33;;;;;12.17;81.53;101378.19;4997664;28;45263;-52
2023/12/28 10:25:20;;;;;;;;;6.33;6.33;;;;;12.34;80.21;101365.94;4997261;28;46014;-53
2023/12/28 10:27:46;;;;;;;;;7.33;5.33;;;;;12.26;80.00;101374.66;4997007;28;45253;-50
2023/12/28 10:30:11;;;;;;;;;6.00;4.00;;;;;12.33;80.01;101370.44;4997496;28;45900;-52
2023/12/28 10:32:40;;;;;;;;;4.00;4.00;;;;;13.18;78.21;101377.47;4995546;28;45477;-52
2023/12/28 10:35:05;;;;;;;;;4.00;3.00;;;;;13.72;75.60;101361.56;4997326;28;47402;-52
2023/12/28 10:37:32;;;;;;;;;12.67;10.00;;;;;14.07;74.08;101367.91;4996965;28;45416;-52
2023/12/28 10:39:59;;;;;;;;;4.33;4.33;;;;;14.03;73.52;101371.88;4997240;28;45386;-49
2023/12/28 10:42:33;;;;;;;;;9.67;6.33;;;;;13.88;74.20;101372.44;4997597;28;45462;-48
2023/12/28 10:45:05;;;;;;;;;9.00;4.00;;;;;14.20;72.67;101374.56;4997188;28;46253;-51
2023/12/28 10:47:33;;;;;;;;;7.67;4.00;;;;;13.92;72.18;101355.09;4996972;28;45297;-52
2023/12/28 10:50:02;;;;;;;;;7.67;5.00;;;;;14.16;72.16;101356.31;4997108;28;45433;-53
2023/12/28 10:52:30;;;;;;;;;4.00;4.00;;;;;13.92;72.10;101356.91;4997299;28;45370;-55
2023/12/28 10:55:00;;;;;;;;;8.33;5.00;;;;;13.92;71.97;101363.09;4996920;28;46162;-52
2023/12/28 10:57:32;;;;;;;;;8.00;6.33;;;;;13.89;72.24;101367.91;4997212;28;45342;-51
2023/12/28 11:00:10;;;;;;;;;5.33;4.00;;;;;14.06;73.24;101367.06;4997125;28;45287;-54
2023/12/28 11:02:41;;;;;;;;;10.33;5.00;;;;;14.14;71.45;101356.44;4997325;28;45364;-53
2023/12/28 11:05:07;;;;;;;;;7.33;5.33;;;;;13.99;71.43;101339.28;4996620;28;45372;-53
2023/12/28 11:07:35;;;;;;;;;9.33;7.33;;;;;14.05;71.16;101345.81;4996785;28;45417;-53
2023/12/28 11:10:04;;;;;;;;;12.67;6.67;;;;;13.87;71.27;101340.50;4996983;28;45437;-53
2023/12/28 11:12:31;;;;;;;;;8.33;7.33;;;;;13.84;72.06;101341.63;4996861;28;45453;-52
2023/12/28 11:14:57;;;;;;;;;7.00;7.00;;;;;13.76;71.92;101322.84;4996599;28;46121;-52
2023/12/28 11:17:26;;;;;;;;;3.33;2.00;;;;;13.76;71.85;101330.88;4996779;28;45386;-51
2023/12/28 11:19:55;;;;;;;;;5.33;5.00;;;;;13.72;71.69;101330.31;4995324;28;45517;-49